sensor_id;sensor_type;location;lat;lon;timestamp;pressure;altitude;pressure_sealevel;temperature
76713;BMP280;65640;43.154;25.658;2023-12-20T00:01:01;100993.19;;;0.38
76713;BMP280;65640;43.154;25.658;2023-12-20T00:03:27;101003.50;;;0.38
76713;BMP280;65640;43.154;25.658;2023-12-20T00:05:52;101001.84;;;0.30
76713;BMP280;65640;43.154;25.658;2023-12-20T00:08:17;100999.09;;;0.31
76713;BMP280;65640;43.154;25.658;2023-12-20T00:10:43;100992.19;;;0.32
76713;BMP280;65640;43.154;25.658;2023-12-20T00:13:08;100992.34;;;0.30
76713;BMP280;65640;43.154;25.658;2023-12-20T00:15:34;100986.31;;;0.23
76713;BMP280;65640;43.154;25.658;2023-12-20T00:17:59;100990.09;;;0.21
76713;BMP280;65640;43.154;25.658;2023-12-20T00:20:25;100982.53;;;0.19
76713;BMP280;65640;43.154;25.658;2023-12-20T00:22:51;100983.56;;;0.25
76713;BMP280;65640;43.154;25.658;2023-12-20T00:25:16;100978.00;;;0.21
76713;BMP280;65640;43.154;25.658;2023-12-20T00:27:41;100986.72;;;0.20
76713;BMP280;65640;43.154;25.658;2023-12-20T00:30:07;100979.97;;;0.19
76713;BMP280;65640;43.154;25.658;2023-12-20T00:32:33;100982.53;;;0.19
76713;BMP280;65640;43.154;25.658;2023-12-20T00:34:58;100975.78;;;0.18
76713;BMP280;65640;43.154;25.658;2023-12-20T00:37:23;100969.66;;;0.19
76713;BMP280;65640;43.154;25.658;2023-12-20T00:39:49;100962.75;;;0.20
76713;BMP280;65640;43.154;25.658;2023-12-20T00:42:14;100965.31;;;0.20
76713;BMP280;65640;43.154;25.658;2023-12-20T00:44:39;100962.94;;;0.18
76713;BMP280;65640;43.154;25.658;2023-12-20T00:47:05;100963.72;;;0.19
76713;BMP280;65640;43.154;25.658;2023-12-20T00:49:30;100948.63;;;0.16
76713;BMP280;65640;43.154;25.658;2023-12-20T00:51:55;100949.00;;;0.13
76713;BMP280;65640;43.154;25.658;2023-12-20T00:54:21;100951.75;;;0.11
76713;BMP280;65640;43.154;25.658;2023-12-20T00:56:46;100946.16;;;0.08
76713;BMP280;65640;43.154;25.658;2023-12-20T00:59:11;100943.22;;;0.11
76713;BMP280;65640;43.154;25.658;2023-12-20T01:01:37;100937.13;;;0.12
76713;BMP280;65640;43.154;25.658;2023-12-20T01:04:03;100937.03;;;0.05
76713;BMP280;65640;43.154;25.658;2023-12-20T01:06:28;100937.91;;;0.12
76713;BMP280;65640;43.154;25.658;2023-12-20T01:08:54;100925.56;;;0.08
76713;BMP280;65640;43.154;25.658;2023-12-20T01:11:19;100928.69;;;0.03
76713;BMP280;65640;43.154;25.658;2023-12-20T01:13:44;100914.41;;;0.00
76713;BMP280;65640;43.154;25.658;2023-12-20T01:16:12;100917.59;;;0.03
76713;BMP280;65640;43.154;25.658;2023-12-20T01:18:38;100911.06;;;0.00
76713;BMP280;65640;43.154;25.658;2023-12-20T01:21:04;100907.47;;;0.01
76713;BMP280;65640;43.154;25.658;2023-12-20T01:23:30;100903.72;;;-0.03
76713;BMP280;65640;43.154;25.658;2023-12-20T01:25:55;100908.84;;;-0.03
76713;BMP280;65640;43.154;25.658;2023-12-20T01:28:20;100903.38;;;-0.15
76713;BMP280;65640;43.154;25.658;2023-12-20T01:30:45;100899.63;;;-0.12
76713;BMP280;65640;43.154;25.658;2023-12-20T01:33:11;100901.84;;;-0.09
76713;BMP280;65640;43.154;25.658;2023-12-20T01:35:36;100896.59;;;-0.01
76713;BMP280;65640;43.154;25.658;2023-12-20T01:38:02;100883.66;;;-0.08
76713;BMP280;65640;43.154;25.658;2023-12-20T01:40:27;100877.09;;;-0.10
76713;BMP280;65640;43.154;25.658;2023-12-20T01:43:00;100870.00;;;-0.08
76713;BMP280;65640;43.154;25.658;2023-12-20T01:45:25;100863.44;;;-0.11
76713;BMP280;65640;43.154;25.658;2023-12-20T01:47:50;100858.56;;;-0.06
76713;BMP280;65640;43.154;25.658;2023-12-20T01:50:16;100854.56;;;-0.08
76713;BMP280;65640;43.154;25.658;2023-12-20T01:52:42;100857.31;;;-0.10
76713;BMP280;65640;43.154;25.658;2023-12-20T01:55:08;100851.03;;;-0.22
76713;BMP280;65640;43.154;25.658;2023-12-20T01:57:38;100848.06;;;-0.25
76713;BMP280;65640;43.154;25.658;2023-12-20T02:00:03;100839.94;;;-0.22
76713;BMP280;65640;43.154;25.658;2023-12-20T02:02:29;100832.25;;;-0.22
76713;BMP280;65640;43.154;25.658;2023-12-20T02:04:55;100834.28;;;-0.18
76713;BMP280;65640;43.154;25.658;2023-12-20T02:07:21;100824.34;;;-0.21
76713;BMP280;65640;43.154;25.658;2023-12-20T02:09:47;100821.94;;;-0.22
76713;BMP280;65640;43.154;25.658;2023-12-20T02:12:12;100816.81;;;-0.22
76713;BMP280;65640;43.154;25.658;2023-12-20T02:14:38;100817.44;;;-0.20
76713;BMP280;65640;43.154;25.658;2023-12-20T02:17:03;100814.81;;;-0.27
76713;BMP280;65640;43.154;25.658;2023-12-20T02:19:28;100826.25;;;-0.29
76713;BMP280;65640;43.154;25.658;2023-12-20T02:22:07;100818.59;;;-0.23
76713;BMP280;65640;43.154;25.658;2023-12-20T02:24:32;100810.91;;;-0.23
76713;BMP280;65640;43.154;25.658;2023-12-20T02:26:58;100804.16;;;-0.24
76713;BMP280;65640;43.154;25.658;2023-12-20T02:29:23;100804.53;;;-0.27
76713;BMP280;65640;43.154;25.658;2023-12-20T02:31:48;100800.53;;;-0.29
76713;BMP280;65640;43.154;25.658;2023-12-20T02:34:14;100796.44;;;-0.39
76713;BMP280;65640;43.154;25.658;2023-12-20T02:36:39;100786.34;;;-0.40
76713;BMP280;65640;43.154;25.658;2023-12-20T02:39:04;100793.69;;;-0.37
76713;BMP280;65640;43.154;25.658;2023-12-20T02:41:30;100792.88;;;-0.38
76713;BMP280;65640;43.154;25.658;2023-12-20T02:43:55;100785.63;;;-0.34
76713;BMP280;65640;43.154;25.658;2023-12-20T02:46:20;100775.06;;;-0.39
76713;BMP280;65640;43.154;25.658;2023-12-20T02:48:45;100776.41;;;-0.43
76713;BMP280;65640;43.154;25.658;2023-12-20T02:51:12;100776.97;;;-0.48
76713;BMP280;65640;43.154;25.658;2023-12-20T02:53:37;100768.28;;;-0.47
76713;BMP280;65640;43.154;25.658;2023-12-20T02:56:02;100767.09;;;-0.44
76713;BMP280;65640;43.154;25.658;2023-12-20T02:58:28;100766.13;;;-0.43
76713;BMP280;65640;43.154;25.658;2023-12-20T03:00:53;100763.56;;;-0.43
76713;BMP280;65640;43.154;25.658;2023-12-20T03:03:19;100759.81;;;-0.41
76713;BMP280;65640;43.154;25.658;2023-12-20T03:05:45;100761.59;;;-0.41
76713;BMP280;65640;43.154;25.658;2023-12-20T03:08:11;100757.38;;;-0.49
76713;BMP280;65640;43.154;25.658;2023-12-20T03:10:36;100750.41;;;-0.55
76713;BMP280;65640;43.154;25.658;2023-12-20T03:13:01;100744.91;;;-0.52
76713;BMP280;65640;43.154;25.658;2023-12-20T03:15:27;100748.44;;;-0.53
76713;BMP280;65640;43.154;25.658;2023-12-20T03:17:52;100748.44;;;-0.53
76713;BMP280;65640;43.154;25.658;2023-12-20T03:20:17;100746.59;;;-0.59
76713;BMP280;65640;43.154;25.658;2023-12-20T03:22:42;100746.78;;;-0.60
76713;BMP280;65640;43.154;25.658;2023-12-20T03:25:08;100742.44;;;-0.60
76713;BMP280;65640;43.154;25.658;2023-12-20T03:27:33;100739.84;;;-0.60
76713;BMP280;65640;43.154;25.658;2023-12-20T03:29:58;100739.84;;;-0.60
76713;BMP280;65640;43.154;25.658;2023-12-20T03:32:24;100741.44;;;-0.59
76713;BMP280;65640;43.154;25.658;2023-12-20T03:34:49;100732.94;;;-0.59
76713;BMP280;65640;43.154;25.658;2023-12-20T03:37:14;100731.09;;;-0.65
76713;BMP280;65640;43.154;25.658;2023-12-20T03:39:39;100728.47;;;-0.72
76713;BMP280;65640;43.154;25.658;2023-12-20T03:42:05;100729.88;;;-0.70
76713;BMP280;65640;43.154;25.658;2023-12-20T03:44:30;100723.69;;;-0.75
76713;BMP280;65640;43.154;25.658;2023-12-20T03:46:56;100722.19;;;-0.70
76713;BMP280;65640;43.154;25.658;2023-12-20T03:49:21;100710.72;;;-0.67
76713;BMP280;65640;43.154;25.658;2023-12-20T03:51:46;100713.34;;;-0.60
76713;BMP280;65640;43.154;25.658;2023-12-20T03:54:12;100710.34;;;-0.64
76713;BMP280;65640;43.154;25.658;2023-12-20T03:56:37;100709.16;;;-0.68
76713;BMP280;65640;43.154;25.658;2023-12-20T03:59:02;100695.06;;;-0.72
76713;BMP280;65640;43.154;25.658;2023-12-20T04:01:28;100687.72;;;-0.75
76713;BMP280;65640;43.154;25.658;2023-12-20T04:03:53;100691.88;;;-0.74
76713;BMP280;65640;43.154;25.658;2023-12-20T04:06:18;100687.09;;;-0.77
76713;BMP280;65640;43.154;25.658;2023-12-20T04:08:44;100687.28;;;-0.79
76713;BMP280;65640;43.154;25.658;2023-12-20T04:11:09;100679.22;;;-0.76
76713;BMP280;65640;43.154;25.658;2023-12-20T04:13:34;100686.84;;;-0.82
76713;BMP280;65640;43.154;25.658;2023-12-20T04:15:59;100683.28;;;-0.81
76713;BMP280;65640;43.154;25.658;2023-12-20T04:18:25;100683.66;;;-0.84
76713;BMP280;65640;43.154;25.658;2023-12-20T04:20:50;100688.78;;;-0.84
76713;BMP280;65640;43.154;25.658;2023-12-20T04:23:16;100682.41;;;-0.88
76713;BMP280;65640;43.154;25.658;2023-12-20T04:25:42;100678.06;;;-0.88
76713;BMP280;65640;43.154;25.658;2023-12-20T04:28:07;100663.47;;;-0.87
76713;BMP280;65640;43.154;25.658;2023-12-20T04:30:32;100665.41;;;-0.89
76713;BMP280;65640;43.154;25.658;2023-12-20T04:32:57;100665.06;;;-0.86
76713;BMP280;65640;43.154;25.658;2023-12-20T04:35:23;100661.88;;;-0.88
76713;BMP280;65640;43.154;25.658;2023-12-20T04:37:48;100653.94;;;-0.72
76713;BMP280;65640;43.154;25.658;2023-12-20T04:40:14;100660.78;;;-0.79
76713;BMP280;65640;43.154;25.658;2023-12-20T04:42:39;100648.19;;;-0.95
76713;BMP280;65640;43.154;25.658;2023-12-20T04:45:05;100646.09;;;-0.85
76713;BMP280;65640;43.154;25.658;2023-12-20T04:47:30;100649.34;;;-0.98
76713;BMP280;65640;43.154;25.658;2023-12-20T04:49:55;100652.13;;;-1.29
76713;BMP280;65640;43.154;25.658;2023-12-20T04:52:21;100649.22;;;-1.55
76713;BMP280;65640;43.154;25.658;2023-12-20T04:54:46;100650.81;;;-1.69
76713;BMP280;65640;43.154;25.658;2023-12-20T04:57:12;100651.69;;;-1.77
76713;BMP280;65640;43.154;25.658;2023-12-20T04:59:37;100651.00;;;-1.85
76713;BMP280;65640;43.154;25.658;2023-12-20T05:02:02;100647.69;;;-1.94
76713;BMP280;65640;43.154;25.658;2023-12-20T05:04:28;100644.31;;;-1.94
76713;BMP280;65640;43.154;25.658;2023-12-20T05:06:53;100646.53;;;-1.91
76713;BMP280;65640;43.154;25.658;2023-12-20T05:09:18;100648.28;;;-1.92
76713;BMP280;65640;43.154;25.658;2023-12-20T05:11:43;100639.97;;;-1.94
76713;BMP280;65640;43.154;25.658;2023-12-20T05:14:09;100632.28;;;-1.94
76713;BMP280;65640;43.154;25.658;2023-12-20T05:16:34;100627.16;;;-1.94
76713;BMP280;65640;43.154;25.658;2023-12-20T05:18:59;100631.94;;;-1.91
76713;BMP280;65640;43.154;25.658;2023-12-20T05:21:27;100629.03;;;-1.88
76713;BMP280;65640;43.154;25.658;2023-12-20T05:23:52;100630.97;;;-1.90
76713;BMP280;65640;43.154;25.658;2023-12-20T05:26:17;100627.97;;;-1.79
76713;BMP280;65640;43.154;25.658;2023-12-20T05:28:43;100633.13;;;-1.64
76713;BMP280;65640;43.154;25.658;2023-12-20T05:31:08;100633.81;;;-1.55
76713;BMP280;65640;43.154;25.658;2023-12-20T05:33:34;100632.75;;;-1.31
76713;BMP280;65640;43.154;25.658;2023-12-20T05:35:59;100630.00;;;-1.30
76713;BMP280;65640;43.154;25.658;2023-12-20T05:38:25;100620.97;;;-1.55
76713;BMP280;65640;43.154;25.658;2023-12-20T05:40:50;100628.00;;;-1.64
76713;BMP280;65640;43.154;25.658;2023-12-20T05:43:15;100629.50;;;-1.70
76713;BMP280;65640;43.154;25.658;2023-12-20T05:45:40;100628.06;;;-1.72
76713;BMP280;65640;43.154;25.658;2023-12-20T05:48:06;100619.50;;;-1.64
76713;BMP280;65640;43.154;25.658;2023-12-20T05:50:31;100627.47;;;-1.59
76713;BMP280;65640;43.154;25.658;2023-12-20T05:52:56;100630.28;;;-1.54
76713;BMP280;65640;43.154;25.658;2023-12-20T05:55:21;100621.06;;;-1.49
76713;BMP280;65640;43.154;25.658;2023-12-20T05:57:47;100627.44;;;-1.45
76713;BMP280;65640;43.154;25.658;2023-12-20T06:00:13;100625.31;;;-1.41
76713;BMP280;65640;43.154;25.658;2023-12-20T06:02:38;100622.22;;;-1.37
76713;BMP280;65640;43.154;25.658;2023-12-20T06:05:05;100617.63;;;-1.26
76713;BMP280;65640;43.154;25.658;2023-12-20T06:07:30;100621.41;;;-1.22
76713;BMP280;65640;43.154;25.658;2023-12-20T06:09:55;100613.63;;;-1.14
76713;BMP280;65640;43.154;25.658;2023-12-20T06:12:20;100619.41;;;-1.06
76713;BMP280;65640;43.154;25.658;2023-12-20T06:14:46;100615.94;;;-0.98
76713;BMP280;65640;43.154;25.658;2023-12-20T06:17:11;100619.19;;;-0.89
76713;BMP280;65640;43.154;25.658;2023-12-20T06:19:36;100618.09;;;-0.80
76713;BMP280;65640;43.154;25.658;2023-12-20T06:22:02;100609.91;;;-0.69
76713;BMP280;65640;43.154;25.658;2023-12-20T06:24:27;100609.94;;;-0.62
76713;BMP280;65640;43.154;25.658;2023-12-20T06:26:53;100611.69;;;-0.42
76713;BMP280;65640;43.154;25.658;2023-12-20T06:29:18;100601.56;;;-0.22
76713;BMP280;65640;43.154;25.658;2023-12-20T06:31:44;100592.25;;;0.05
76713;BMP280;65640;43.154;25.658;2023-12-20T06:34:09;100608.75;;;0.17
76713;BMP280;65640;43.154;25.658;2023-12-20T06:36:35;100609.63;;;-0.04
76713;BMP280;65640;43.154;25.658;2023-12-20T06:39:00;100600.03;;;-0.16
76713;BMP280;65640;43.154;25.658;2023-12-20T06:41:26;100606.41;;;-0.12
76713;BMP280;65640;43.154;25.658;2023-12-20T06:43:51;100607.56;;;-0.15
76713;BMP280;65640;43.154;25.658;2023-12-20T06:46:18;100604.44;;;-0.10
76713;BMP280;65640;43.154;25.658;2023-12-20T06:48:43;100600.69;;;-0.08
76713;BMP280;65640;43.154;25.658;2023-12-20T06:51:11;100604.50;;;0.03
76713;BMP280;65640;43.154;25.658;2023-12-20T06:53:37;100605.97;;;0.12
76713;BMP280;65640;43.154;25.658;2023-12-20T06:56:02;100598.28;;;0.25
76713;BMP280;65640;43.154;25.658;2023-12-20T06:58:27;100596.56;;;0.39
76713;BMP280;65640;43.154;25.658;2023-12-20T07:00:53;100594.47;;;0.62
76713;BMP280;65640;43.154;25.658;2023-12-20T07:03:18;100578.47;;;0.80
76713;BMP280;65640;43.154;25.658;2023-12-20T07:05:43;100574.28;;;0.79
76713;BMP280;65640;43.154;25.658;2023-12-20T07:08:09;100571.53;;;0.94
76713;BMP280;65640;43.154;25.658;2023-12-20T07:10:35;100576.31;;;1.03
76713;BMP280;65640;43.154;25.658;2023-12-20T07:13:00;100566.44;;;1.20
76713;BMP280;65640;43.154;25.658;2023-12-20T07:15:25;100571.16;;;1.36
76713;BMP280;65640;43.154;25.658;2023-12-20T07:17:52;100574.13;;;1.53
76713;BMP280;65640;43.154;25.658;2023-12-20T07:20:17;100564.78;;;1.72
76713;BMP280;65640;43.154;25.658;2023-12-20T07:22:42;100563.59;;;1.74
76713;BMP280;65640;43.154;25.658;2023-12-20T07:25:07;100557.97;;;1.91
76713;BMP280;65640;43.154;25.658;2023-12-20T07:27:33;100550.34;;;2.22
76713;BMP280;65640;43.154;25.658;2023-12-20T07:29:58;100559.94;;;2.47
76713;BMP280;65640;43.154;25.658;2023-12-20T07:32:23;100554.38;;;2.74
76713;BMP280;65640;43.154;25.658;2023-12-20T07:34:49;100554.00;;;2.71
76713;BMP280;65640;43.154;25.658;2023-12-20T07:37:14;100547.94;;;2.59
76713;BMP280;65640;43.154;25.658;2023-12-20T07:39:39;100546.63;;;2.43
76713;BMP280;65640;43.154;25.658;2023-12-20T07:42:05;100554.00;;;2.33
76713;BMP280;65640;43.154;25.658;2023-12-20T07:44:30;100547.91;;;2.27
76713;BMP280;65640;43.154;25.658;2023-12-20T07:46:56;100542.75;;;2.27
76713;BMP280;65640;43.154;25.658;2023-12-20T07:49:21;100546.25;;;2.39
76713;BMP280;65640;43.154;25.658;2023-12-20T07:51:46;100548.34;;;2.56
76713;BMP280;65640;43.154;25.658;2023-12-20T07:54:12;100537.75;;;2.64
76713;BMP280;65640;43.154;25.658;2023-12-20T07:56:37;100533.91;;;2.98
76713;BMP280;65640;43.154;25.658;2023-12-20T07:59:05;100528.16;;;3.21
76713;BMP280;65640;43.154;25.658;2023-12-20T08:01:30;100536.50;;;3.23
76713;BMP280;65640;43.154;25.658;2023-12-20T08:03:55;100531.69;;;3.26
76713;BMP280;65640;43.154;25.658;2023-12-20T08:06:22;100525.72;;;3.26
76713;BMP280;65640;43.154;25.658;2023-12-20T08:08:47;100514.09;;;3.35
76713;BMP280;65640;43.154;25.658;2023-12-20T08:11:12;100511.22;;;3.43
76713;BMP280;65640;43.154;25.658;2023-12-20T08:13:37;100508.66;;;3.61
76713;BMP280;65640;43.154;25.658;2023-12-20T08:16:03;100504.09;;;3.75
76713;BMP280;65640;43.154;25.658;2023-12-20T08:18:29;100500.28;;;3.77
76713;BMP280;65640;43.154;25.658;2023-12-20T08:20:54;100501.91;;;3.90
76713;BMP280;65640;43.154;25.658;2023-12-20T08:23:20;100496.13;;;4.06
76713;BMP280;65640;43.154;25.658;2023-12-20T08:25:48;100485.59;;;4.31
76713;BMP280;65640;43.154;25.658;2023-12-20T08:28:14;100483.06;;;4.54
76713;BMP280;65640;43.154;25.658;2023-12-20T08:30:39;100486.56;;;4.83
76713;BMP280;65640;43.154;25.658;2023-12-20T08:33:05;100477.28;;;5.11
76713;BMP280;65640;43.154;25.658;2023-12-20T08:35:32;100476.69;;;5.32
76713;BMP280;65640;43.154;25.658;2023-12-20T08:37:58;100467.56;;;5.41
76713;BMP280;65640;43.154;25.658;2023-12-20T08:40:23;100463.28;;;5.23
76713;BMP280;65640;43.154;25.658;2023-12-20T08:42:48;100459.69;;;5.13
76713;BMP280;65640;43.154;25.658;2023-12-20T08:45:14;100454.16;;;5.09
76713;BMP280;65640;43.154;25.658;2023-12-20T08:47:39;100448.63;;;5.17
76713;BMP280;65640;43.154;25.658;2023-12-20T08:50:06;100437.69;;;5.15
76713;BMP280;65640;43.154;25.658;2023-12-20T08:52:31;100425.84;;;5.19
76713;BMP280;65640;43.154;25.658;2023-12-20T08:54:57;100434.16;;;5.33
76713;BMP280;65640;43.154;25.658;2023-12-20T08:57:22;100430.69;;;5.44
76713;BMP280;65640;43.154;25.658;2023-12-20T08:59:50;100430.31;;;5.64
76713;BMP280;65640;43.154;25.658;2023-12-20T09:02:16;100410.63;;;5.68
76713;BMP280;65640;43.154;25.658;2023-12-20T09:04:41;100411.84;;;5.77
76713;BMP280;65640;43.154;25.658;2023-12-20T09:07:06;100397.59;;;5.96
76713;BMP280;65640;43.154;25.658;2023-12-20T09:09:32;100399.97;;;6.14
76713;BMP280;65640;43.154;25.658;2023-12-20T09:11:58;100395.84;;;6.35
76713;BMP280;65640;43.154;25.658;2023-12-20T09:14:23;100397.56;;;6.46
76713;BMP280;65640;43.154;25.658;2023-12-20T09:16:49;100388.19;;;6.45
76713;BMP280;65640;43.154;25.658;2023-12-20T09:19:16;100374.09;;;6.41
76713;BMP280;65640;43.154;25.658;2023-12-20T09:21:41;100364.66;;;6.57
76713;BMP280;65640;43.154;25.658;2023-12-20T09:24:06;100362.44;;;6.87
76713;BMP280;65640;43.154;25.658;2023-12-20T09:26:33;100351.28;;;7.14
76713;BMP280;65640;43.154;25.658;2023-12-20T09:28:59;100340.13;;;7.18
76713;BMP280;65640;43.154;25.658;2023-12-20T09:31:24;100327.25;;;7.07
76713;BMP280;65640;43.154;25.658;2023-12-20T09:33:49;100335.34;;;7.37
76713;BMP280;65640;43.154;25.658;2023-12-20T09:36:14;100325.13;;;7.62
76713;BMP280;65640;43.154;25.658;2023-12-20T09:38:40;100321.34;;;7.80
76713;BMP280;65640;43.154;25.658;2023-12-20T09:41:05;100317.25;;;7.94
76713;BMP280;65640;43.154;25.658;2023-12-20T09:43:31;100316.59;;;8.09
76713;BMP280;65640;43.154;25.658;2023-12-20T09:45:58;100308.25;;;8.17
76713;BMP280;65640;43.154;25.658;2023-12-20T09:48:27;100307.28;;;8.28
76713;BMP280;65640;43.154;25.658;2023-12-20T09:50:53;100294.78;;;8.40
76713;BMP280;65640;43.154;25.658;2023-12-20T09:53:18;100291.66;;;8.43
76713;BMP280;65640;43.154;25.658;2023-12-20T09:55:44;100295.88;;;8.50
76713;BMP280;65640;43.154;25.658;2023-12-20T09:58:09;100281.84;;;8.71
76713;BMP280;65640;43.154;25.658;2023-12-20T10:00:35;100277.91;;;8.83
76713;BMP280;65640;43.154;25.658;2023-12-20T10:03:00;100277.97;;;8.99
76713;BMP280;65640;43.154;25.658;2023-12-20T10:05:26;100266.19;;;9.11
76713;BMP280;65640;43.154;25.658;2023-12-20T10:07:52;100269.59;;;9.22
76713;BMP280;65640;43.154;25.658;2023-12-20T10:10:17;100264.09;;;9.29
76713;BMP280;65640;43.154;25.658;2023-12-20T10:13:00;100254.44;;;9.34
76713;BMP280;65640;43.154;25.658;2023-12-20T10:15:25;100244.50;;;9.41
76713;BMP280;65640;43.154;25.658;2023-12-20T10:17:51;100234.53;;;9.48
76713;BMP280;65640;43.154;25.658;2023-12-20T10:20:16;100242.38;;;9.63
76713;BMP280;65640;43.154;25.658;2023-12-20T10:22:41;100231.09;;;9.68
76713;BMP280;65640;43.154;25.658;2023-12-20T10:25:07;100222.72;;;9.71
76713;BMP280;65640;43.154;25.658;2023-12-20T10:27:32;100219.03;;;9.82
76713;BMP280;65640;43.154;25.658;2023-12-20T10:29:58;100208.28;;;9.89
76713;BMP280;65640;43.154;25.658;2023-12-20T10:32:26;100204.56;;;10.00
76713;BMP280;65640;43.154;25.658;2023-12-20T10:34:52;100210.56;;;10.00
76713;BMP280;65640;43.154;25.658;2023-12-20T10:37:17;100206.34;;;10.10
76713;BMP280;65640;43.154;25.658;2023-12-20T10:39:43;100193.25;;;10.15
76713;BMP280;65640;43.154;25.658;2023-12-20T10:42:09;100188.22;;;10.23
76713;BMP280;65640;43.154;25.658;2023-12-20T10:44:36;100189.72;;;10.34
76713;BMP280;65640;43.154;25.658;2023-12-20T10:47:01;100184.59;;;10.58
76713;BMP280;65640;43.154;25.658;2023-12-20T10:49:27;100170.59;;;10.97
76713;BMP280;65640;43.154;25.658;2023-12-20T10:51:53;100167.00;;;10.87
76713;BMP280;65640;43.154;25.658;2023-12-20T10:54:19;100161.84;;;10.82
76713;BMP280;65640;43.154;25.658;2023-12-20T10:56:44;100159.31;;;10.72
76713;BMP280;65640;43.154;25.658;2023-12-20T10:59:10;100146.53;;;10.66
76713;BMP280;65640;43.154;25.658;2023-12-20T11:01:36;100141.25;;;10.71
76713;BMP280;65640;43.154;25.658;2023-12-20T11:04:03;100137.03;;;10.75
76713;BMP280;65640;43.154;25.658;2023-12-20T11:06:43;100135.75;;;10.72
76713;BMP280;65640;43.154;25.658;2023-12-20T11:11:47;100133.69;;;10.93
76713;BMP280;65640;43.154;25.658;2023-12-20T11:14:19;100125.25;;;11.01
76713;BMP280;65640;43.154;25.658;2023-12-20T11:16:45;100121.72;;;11.11
76713;BMP280;65640;43.154;25.658;2023-12-20T11:19:11;100123.28;;;11.12
76713;BMP280;65640;43.154;25.658;2023-12-20T11:21:39;100111.75;;;11.13
76713;BMP280;65640;43.154;25.658;2023-12-20T11:24:04;100101.50;;;11.16
76713;BMP280;65640;43.154;25.658;2023-12-20T11:26:30;100106.97;;;11.20
76713;BMP280;65640;43.154;25.658;2023-12-20T11:31:42;100092.16;;;11.29
76713;BMP280;65640;43.154;25.658;2023-12-20T11:34:13;100094.16;;;11.37
76713;BMP280;65640;43.154;25.658;2023-12-20T11:36:39;100099.34;;;11.42
76713;BMP280;65640;43.154;25.658;2023-12-20T11:39:04;100096.16;;;11.45
76713;BMP280;65640;43.154;25.658;2023-12-20T11:41:33;100091.28;;;11.57
76713;BMP280;65640;43.154;25.658;2023-12-20T11:43:59;100077.56;;;11.60
76713;BMP280;65640;43.154;25.658;2023-12-20T11:46:26;100078.44;;;11.56
76713;BMP280;65640;43.154;25.658;2023-12-20T11:48:51;100085.72;;;11.40
76713;BMP280;65640;43.154;25.658;2023-12-20T11:51:16;100086.28;;;11.37
76713;BMP280;65640;43.154;25.658;2023-12-20T11:53:42;100081.03;;;11.37
76713;BMP280;65640;43.154;25.658;2023-12-20T11:56:07;100068.31;;;11.49
76713;BMP280;65640;43.154;25.658;2023-12-20T11:58:33;100060.59;;;11.58
76713;BMP280;65640;43.154;25.658;2023-12-20T12:00:58;100057.88;;;11.82
76713;BMP280;65640;43.154;25.658;2023-12-20T12:03:24;100050.44;;;11.89
76713;BMP280;65640;43.154;25.658;2023-12-20T12:05:49;100051.97;;;11.90
76713;BMP280;65640;43.154;25.658;2023-12-20T12:08:14;100048.28;;;11.91
76713;BMP280;65640;43.154;25.658;2023-12-20T12:10:40;100037.72;;;11.96
76713;BMP280;65640;43.154;25.658;2023-12-20T12:13:05;100032.66;;;11.99
76713;BMP280;65640;43.154;25.658;2023-12-20T12:15:31;100033.63;;;11.90
76713;BMP280;65640;43.154;25.658;2023-12-20T12:17:57;100027.94;;;11.83
76713;BMP280;65640;43.154;25.658;2023-12-20T12:20:22;100033.28;;;11.78
76713;BMP280;65640;43.154;25.658;2023-12-20T12:22:57;100024.25;;;11.84
76713;BMP280;65640;43.154;25.658;2023-12-20T12:25:23;100020.66;;;11.80
76713;BMP280;65640;43.154;25.658;2023-12-20T12:27:48;100017.97;;;11.85
76713;BMP280;65640;43.154;25.658;2023-12-20T12:30:15;100006.97;;;11.83
76713;BMP280;65640;43.154;25.658;2023-12-20T12:32:43;100004.28;;;11.88
76713;BMP280;65640;43.154;25.658;2023-12-20T12:35:08;99999.50;;;11.90
76713;BMP280;65640;43.154;25.658;2023-12-20T12:37:35;99991.25;;;11.96
76713;BMP280;65640;43.154;25.658;2023-12-20T12:40:03;99991.22;;;12.15
76713;BMP280;65640;43.154;25.658;2023-12-20T12:42:30;99983.84;;;12.17
76713;BMP280;65640;43.154;25.658;2023-12-20T12:44:55;99980.03;;;12.23
76713;BMP280;65640;43.154;25.658;2023-12-20T12:47:21;99973.50;;;12.21
76713;BMP280;65640;43.154;25.658;2023-12-20T12:49:47;99965.84;;;12.24
76713;BMP280;65640;43.154;25.658;2023-12-20T12:52:12;99969.81;;;12.22
76713;BMP280;65640;43.154;25.658;2023-12-20T12:54:38;99971.94;;;12.20
76713;BMP280;65640;43.154;25.658;2023-12-20T12:57:03;99975.19;;;12.17
76713;BMP280;65640;43.154;25.658;2023-12-20T12:59:28;99972.56;;;12.17
76713;BMP280;65640;43.154;25.658;2023-12-20T13:01:54;99978.75;;;12.21
76713;BMP280;65640;43.154;25.658;2023-12-20T13:04:19;99974.28;;;12.21
76713;BMP280;65640;43.154;25.658;2023-12-20T13:06:44;99980.13;;;12.18
76713;BMP280;65640;43.154;25.658;2023-12-20T13:09:10;99977.59;;;12.13
76713;BMP280;65640;43.154;25.658;2023-12-20T13:11:35;99979.31;;;12.04
76713;BMP280;65640;43.154;25.658;2023-12-20T13:14:00;99984.38;;;12.00
76713;BMP280;65640;43.154;25.658;2023-12-20T13:16:26;99977.16;;;11.79
76713;BMP280;65640;43.154;25.658;2023-12-20T13:18:51;99978.38;;;11.67
76713;BMP280;65640;43.154;25.658;2023-12-20T13:21:16;99978.59;;;11.52
76713;BMP280;65640;43.154;25.658;2023-12-20T13:23:42;99979.34;;;11.39
76713;BMP280;65640;43.154;25.658;2023-12-20T13:26:07;99970.84;;;11.28
76713;BMP280;65640;43.154;25.658;2023-12-20T13:28:32;99970.94;;;11.23
76713;BMP280;65640;43.154;25.658;2023-12-20T13:30:58;99963.69;;;11.15
76713;BMP280;65640;43.154;25.658;2023-12-20T13:33:23;99966.78;;;11.04
76713;BMP280;65640;43.154;25.658;2023-12-20T13:35:48;99960.75;;;11.03
76713;BMP280;65640;43.154;25.658;2023-12-20T13:38:14;99970.50;;;10.98
76713;BMP280;65640;43.154;25.658;2023-12-20T13:40:39;99964.88;;;10.85
76713;BMP280;65640;43.154;25.658;2023-12-20T13:43:04;99963.94;;;10.81
76713;BMP280;65640;43.154;25.658;2023-12-20T13:45:29;99970.31;;;10.70